createdAt,value
2018-06-23T02:27:27.988Z,96635.69
2018-06-23T03:43:11.372Z,96634.83
2018-06-23T03:46:03.549Z,96630.75
2018-06-23T03:52:42.698Z,96618.16
2018-06-23T04:06:16.109Z,96631.36
2018-06-23T04:08:56.393Z,96628.45
2018-06-23T04:26:34.587Z,96628.42
2018-06-23T05:24:01.296Z,96633.17
2018-06-23T06:12:47.743Z,96626.56
2018-06-23T06:24:16.622Z,96613.98
2018-06-23T06:35:51.323Z,96614.48
2018-06-23T06:38:33.015Z,96621.15
2018-06-23T06:52:57.611Z,96501.03
2018-06-23T06:55:49.685Z,96607.83
2018-06-23T07:04:28.654Z,96607.13
2018-06-23T07:06:59.180Z,96586.76
2018-06-23T07:09:57.460Z,96594.97
2018-06-23T07:12:39.316Z,96598.92
2018-06-23T07:15:17.707Z,96588.19
2018-06-23T07:24:53.648Z,96589.66
2018-06-23T07:36:18.086Z,96587.26
2018-06-23T08:08:50.355Z,96564.70
2018-06-23T08:16:06.968Z,96558.46
2018-06-23T08:18:40.546Z,96448.91
2018-06-23T08:21:13.837Z,96565.38
2018-06-23T08:24:13.014Z,96445.64
2018-06-23T08:48:20.128Z,96555.66
2018-06-23T08:50:58.168Z,96556.62
2018-06-23T08:53:33.575Z,96569.63
2018-06-23T08:56:05.753Z,96563.55
2018-06-23T08:58:42.827Z,96560.25
2018-06-23T09:01:17.960Z,96576.91
2018-06-23T09:03:50.543Z,96565.67
2018-06-23T09:06:21.069Z,96452.56
2018-06-23T09:08:51.862Z,96558.14
2018-06-23T09:14:15.450Z,96546.09
2018-06-23T09:17:01.555Z,96546.88
2018-06-23T09:23:57.368Z,96543.42
2018-06-23T09:26:44.447Z,96541.81
2018-06-23T09:29:13.837Z,96546.02
2018-06-23T09:35:14.084Z,96429.36
2018-06-23T09:40:36.502Z,96547.33
2018-06-23T09:43:07.108Z,96549.27
2018-06-23T09:45:38.931Z,96554.81
2018-06-23T09:48:08.121Z,96546.45
2018-06-23T09:50:38.421Z,96541.36
2018-06-23T09:53:08.926Z,96549.84
2018-06-23T09:58:34.118Z,96542.45
2018-06-23T10:01:05.171Z,96538.33
2018-06-23T10:03:44.341Z,96541.20
2018-06-23T10:06:32.612Z,96537.88
2018-06-23T10:09:06.794Z,96536.55
2018-06-23T10:11:35.818Z,96541.94
2018-06-23T10:14:09.228Z,96546.92
2018-06-23T10:16:42.915Z,96539.17
2018-06-23T10:19:15.116Z,96554.00
2018-06-23T10:21:47.912Z,96552.62
2018-06-23T10:24:22.361Z,96550.77
2018-06-23T10:26:51.435Z,96550.53
2018-06-23T10:29:26.969Z,96547.31
2018-06-23T10:32:22.052Z,96548.97
2018-06-23T10:34:55.384Z,96547.75
2018-06-23T10:37:26.631Z,96545.74
2018-06-23T10:39:55.940Z,96551.02
2018-06-23T10:42:26.065Z,96549.13
2018-06-23T10:44:54.977Z,96558.31
2018-06-23T10:47:40.618Z,96549.17
2018-06-23T10:50:12.430Z,96545.95
2018-06-23T10:53:13.559Z,96543.39
2018-06-23T10:55:45.274Z,96549.38
2018-06-23T10:59:06.377Z,96532.02
2018-06-23T11:02:01.187Z,96546.21
2018-06-23T11:04:30.497Z,96542.45
2018-06-23T11:06:59.740Z,96548.80
2018-06-23T11:09:29.615Z,96549.26
2018-06-23T11:12:08.444Z,96536.44
2018-06-23T11:14:37.663Z,96544.33
2018-06-23T11:17:08.423Z,96545.31
2018-06-23T11:19:55.194Z,96545.05
2018-06-23T11:22:34.858Z,96544.81
2018-06-23T11:25:05.083Z,96549.01
2018-06-23T11:27:35.292Z,96556.48
2018-06-23T11:30:07.132Z,96557.05
2018-06-23T11:32:42.782Z,96547.84
2018-06-23T11:35:19.784Z,96542.97
2018-06-23T11:37:50.899Z,96536.33
2018-06-23T11:40:37.651Z,96529.80
2018-06-23T11:43:08.648Z,96527.98
2018-06-23T11:45:37.761Z,96525.08
2018-06-23T11:50:56.682Z,96525.82
2018-06-23T11:53:31.003Z,96525.23
2018-06-23T11:56:04.018Z,96520.58
2018-06-23T11:58:33.693Z,96516.14
2018-06-23T12:01:03.162Z,96504.19
2018-06-23T12:03:33.452Z,96510.52
2018-06-23T12:06:02.598Z,96502.72
2018-06-23T12:08:37.530Z,96513.38
2018-06-23T12:14:00.803Z,96503.76
2018-06-23T12:19:15.877Z,96511.76
2018-06-23T12:21:44.923Z,96507.17
2018-06-23T12:24:17.300Z,96505.33
2018-06-23T12:26:46.789Z,96505.52
2018-06-23T12:29:17.939Z,96509.66
2018-06-23T12:31:46.962Z,96503.59
2018-06-23T12:34:16.516Z,96503.57
2018-06-23T12:36:51.421Z,96506.78
2018-06-23T12:42:10.801Z,96504.84
2018-06-23T12:44:48.599Z,96500.36
2018-06-23T12:47:29.607Z,96500.20
2018-06-23T12:50:00.030Z,96491.82
2018-06-23T12:52:33.313Z,96499.86
2018-06-23T12:55:03.807Z,96492.97
2018-06-23T12:57:38.171Z,96496.89
2018-06-23T13:00:20.418Z,96495.95
2018-06-23T13:02:51.384Z,96492.25
2018-06-23T13:05:31.359Z,96497.61
2018-06-23T13:08:12.559Z,96499.27
2018-06-23T13:10:54.120Z,96500.56
2018-06-23T13:13:42.161Z,96489.48
2018-06-23T13:16:22.725Z,96495.80
2018-06-23T13:19:08.322Z,96492.72
2018-06-23T13:21:39.552Z,96484.48
2018-06-23T13:24:09.017Z,96484.31
2018-06-23T13:27:44.759Z,96486.91
2018-06-23T13:30:15.239Z,96478.45
2018-06-23T13:33:22.853Z,96471.00
2018-06-23T13:39:08.535Z,96466.58
2018-06-23T13:41:38.201Z,96462.19
2018-06-23T13:44:27.789Z,96467.70
2018-06-23T13:46:57.495Z,96467.41
2018-06-23T13:50:06.506Z,96466.42
2018-06-23T13:52:35.770Z,96468.08
2018-06-23T13:55:07.542Z,96464.82
2018-06-23T13:57:37.299Z,96466.44
2018-06-23T14:00:09.039Z,96460.77
2018-06-23T14:02:52.017Z,96473.59
2018-06-23T14:05:41.808Z,96463.20
2018-06-23T14:08:11.116Z,96463.05
2018-06-23T14:10:50.247Z,96462.09
2018-06-23T14:19:42.128Z,96449.24
2018-06-23T14:22:13.345Z,96454.75
2018-06-23T14:24:52.766Z,96449.23
2018-06-23T14:27:28.486Z,96450.38
2018-06-23T14:29:58.517Z,96449.89
2018-06-23T14:32:31.652Z,96447.45
2018-06-23T14:35:01.628Z,96450.71
2018-06-23T14:37:38.525Z,96449.56
2018-06-23T14:40:10.540Z,96440.14
2018-06-23T14:43:13.608Z,96441.95
2018-06-23T14:45:48.907Z,96336.21
2018-06-23T14:48:27.132Z,96450.55
2018-06-23T14:53:57.624Z,96446.96
2018-06-23T14:56:28.892Z,96449.89
2018-06-23T14:59:19.077Z,96456.70
2018-06-23T15:01:48.844Z,96443.70
2018-06-23T15:07:51.230Z,96456.37
2018-06-23T15:10:31.411Z,96449.88
2018-06-23T15:13:37.476Z,96388.18
2018-06-23T15:16:07.009Z,96455.08
2018-06-23T15:22:46.036Z,96453.64
2018-06-23T15:25:21.900Z,96451.34
2018-06-23T15:28:02.643Z,96447.94
2018-06-23T15:34:26.834Z,96446.63
2018-06-23T15:42:43.402Z,96445.17
2018-06-23T15:45:18.297Z,96446.80
2018-06-23T15:47:47.340Z,96441.11
2018-06-23T15:50:16.986Z,96448.26
2018-06-23T15:52:46.843Z,96448.75
2018-06-23T15:55:16.607Z,96449.06
2018-06-23T15:57:45.413Z,96453.45
2018-06-23T16:00:22.337Z,96455.41
2018-06-23T16:02:51.614Z,96449.54
2018-06-23T16:05:55.566Z,96424.89
2018-06-23T16:08:29.453Z,96447.47
2018-06-23T16:11:26.725Z,96447.47
2018-06-23T16:14:12.612Z,96448.92
2018-06-23T16:17:00.809Z,96451.84
2018-06-23T16:19:55.532Z,96454.23
